Time;durP1;ratioP1;P1;durP2;ratioP2;P2;SDS_P1;SDS_P2;PMS_P1;PMS_P2;Temp;Humidity;BMP_temperature;BMP_pressure;BME280_temperature;BME280_humidity;BME280_pressure;Samples;Min_cycle;Max_cycle;Signal;HPM_P1;HPM_P2
2023/07/15 10:41:39;;;;;;;;;;;;;;;;;;;;;
2023/07/15 10:47:46;;;;;;;;;;;;;;;;;;;;;
2023/07/15 10:56:52;;;;;;;3.90;2.60;;;;;;;27.14;54.87;96572.97;107421;1289;22309;-89
2023/07/15 10:59:19;;;;;;;3.00;2.40;;;;;;;27.17;54.47;96568.67;107846;1285;138261;-90
2023/07/15 11:02:28;;;;;;;5.20;3.00;;;;;;;27.20;55.54;96568.44;107352;1306;22315;-90
2023/07/15 11:05:21;;;;;;;2.80;2.00;;;;;;;27.29;55.29;96565.77;107509;1285;138169;-91
2023/07/15 11:08:13;;;;;;;3.70;2.20;;;;;;;27.32;53.48;96560.29;107501;1289;23572;-90
2023/07/15 11:10:43;;;;;;;4.90;3.30;;;;;;;27.35;54.75;96558.47;107407;1299;138064;-90
2023/07/15 11:13:33;;;;;;;3.40;3.00;;;;;;;27.38;54.53;96557.40;107354;1294;23121;-89
2023/07/15 11:16:06;;;;;;;2.80;2.40;;;;;;;27.43;54.93;96559.96;107382;1304;138455;-90
2023/07/15 11:18:51;;;;;;;4.10;3.00;;;;;;;27.47;54.69;96556.43;107508;1291;22220;-89
2023/07/15 11:21:44;;;;;;;3.10;2.50;;;;;;;27.54;55.44;96549.48;107284;1292;137834;-90
2023/07/15 11:24:46;;;;;;;4.50;3.30;;;;;;;27.63;54.73;96549.80;107421;1294;22179;-90
2023/07/15 11:27:34;;;;;;;3.70;3.00;;;;;;;27.68;55.09;96546.57;107320;1291;137669;-90
2023/07/15 11:30:01;;;;;;;8.30;3.00;;;;;;;27.74;55.40;96546.10;107463;1300;22237;-90
2023/07/15 11:32:38;;;;;;;3.80;2.40;;;;;;;27.80;56.61;96542.33;107399;1294;22185;-90
2023/07/15 11:35:53;;;;;;;4.40;2.20;;;;;;;27.82;54.56;96535.98;107387;1285;137674;-90
2023/07/15 11:38:30;;;;;;;5.50;3.30;;;;;;;27.84;55.06;96538.83;107736;1290;22368;-89
2023/07/15 11:41:00;;;;;;;6.70;5.80;;;;;;;27.84;54.05;96536.33;107354;1285;138618;-90
2023/07/15 11:43:31;;;;;;;10.40;6.90;;;;;;;27.84;54.33;96536.48;107515;1292;22892;-89
2023/07/15 11:45:59;;;;;;;4.20;2.60;;;;;;;27.88;53.39;96542.29;107338;1307;136761;-89
2023/07/15 11:48:43;;;;;;;6.40;2.30;;;;;;;27.89;52.72;96538.54;107563;1291;22205;-89
2023/07/15 11:51:13;;;;;;;6.40;3.90;;;;;;;27.91;53.47;96533.59;107274;1294;138173;-91
2023/07/15 11:53:48;;;;;;;11.20;8.20;;;;;;;27.94;54.49;96529.69;107307;1296;22227;-90
2023/07/15 11:56:41;;;;;;;4.60;3.20;;;;;;;28.00;54.73;96534.38;107277;1293;22167;-90
2023/07/15 11:59:10;;;;;;;3.10;2.60;;;;;;;28.04;53.73;96537.41;107228;1284;138120;-90
2023/07/15 12:01:38;;;;;;;3.60;2.90;;;;;;;28.07;54.17;96526.04;107509;1294;22325;-90
2023/07/15 12:04:15;;;;;;;8.70;5.00;;;;;;;28.13;55.01;96523.02;107265;1301;138235;-90
2023/07/15 12:06:55;;;;;;;6.20;3.50;;;;;;;28.17;53.62;96520.61;107784;1289;23066;-90
2023/07/15 12:09:22;;;;;;;26.80;15.20;;;;;;;28.19;52.40;96522.51;107710;1289;138010;-90
2023/07/15 12:11:58;;;;;;;9.00;5.40;;;;;;;28.19;51.73;96516.41;107772;1288;22178;-90
2023/07/15 12:14:25;;;;;;;13.20;6.60;;;;;;;28.21;52.61;96507.31;107933;1290;22798;-90
2023/07/15 12:16:55;;;;;;;14.20;7.50;;;;;;;28.24;53.15;96514.26;107951;1299;138162;-90
2023/07/15 12:19:23;;;;;;;6.60;4.50;;;;;;;28.31;52.39;96517.42;107874;1291;22221;-90
2023/07/15 12:22:13;;;;;;;6.00;3.80;;;;;;;28.35;51.28;96509.83;107535;1301;138860;-89
2023/07/15 12:24:57;;;;;;;4.80;2.30;;;;;;;28.38;51.47;96505.02;107854;1292;22981;-89
2023/07/15 12:27:24;;;;;;;8.30;4.40;;;;;;;28.39;51.86;96501.64;107624;1297;137795;-89
2023/07/15 12:29:52;;;;;;;13.20;5.40;;;;;;;28.43;51.39;96502.31;107705;1289;22968;-90
2023/07/15 12:32:19;;;;;;;3.90;3.40;;;;;;;28.46;51.59;96499.12;107768;1284;22292;-89
2023/07/15 12:34:45;;;;;;;3.40;2.60;;;;;;;28.48;50.99;96497.38;107585;1300;136754;-90
2023/07/15 12:37:23;;;;;;;4.70;3.60;;;;;;;28.52;51.15;96496.35;107685;1290;22435;-90
2023/07/15 12:39:50;;;;;;;5.70;4.20;;;;;;;28.57;51.17;96494.88;107664;1288;139101;-90
2023/07/15 12:42:29;;;;;;;8.90;5.40;;;;;;;28.59;50.76;96491.45;107807;1288;22199;-89
2023/07/15 12:45:10;;;;;;;3.40;2.70;;;;;;;28.61;50.93;96492.98;107812;1289;22997;-89
2023/07/15 12:47:37;;;;;;;3.20;1.90;;;;;;;28.64;50.82;96491.01;107660;1289;22334;-90
2023/07/15 12:50:20;;;;;;;3.40;2.50;;;;;;;28.67;51.51;96494.37;107745;1289;22223;-90
2023/07/15 12:52:46;;;;;;;3.00;2.30;;;;;;;28.74;52.02;96491.95;107756;1305;138029;-89
2023/07/15 12:55:13;;;;;;;2.80;2.40;;;;;;;28.78;51.10;96490.30;107713;1289;23093;-90
2023/07/15 12:57:46;;;;;;;2.80;2.00;;;;;;;28.81;50.44;96487.98;107570;1289;137892;-90
2023/07/15 13:00:14;;;;;;;2.90;2.60;;;;;;;28.85;50.71;96485.45;107904;1288;22283;-90
2023/07/15 13:02:44;;;;;;;2.90;2.60;;;;;;;28.90;51.09;96487.29;107709;1289;22373;-89
2023/07/15 13:05:34;;;;;;;3.20;2.60;;;;;;;28.93;50.58;96477.88;107399;1298;139893;-89
2023/07/15 13:08:36;;;;;;;3.80;2.30;;;;;;;28.96;51.38;96487.35;107708;1300;22108;-90
2023/07/15 13:11:13;;;;;;;1.90;1.80;;;;;;;28.98;50.48;96480.48;107714;1282;137806;-90
2023/07/15 13:13:40;;;;;;;3.60;2.50;;;;;;;29.01;50.83;96478.96;107722;1299;22266;-90
2023/07/15 13:16:07;;;;;;;3.30;2.60;;;;;;;29.06;50.67;96477.91;107711;1300;138063;-89
2023/07/15 13:18:46;;;;;;;2.20;2.00;;;;;;;29.08;50.71;96474.27;107809;1288;22143;-90
2023/07/15 13:21:13;;;;;;;3.70;2.60;;;;;;;29.08;50.20;96473.08;107786;1288;137799;-91
2023/07/15 13:23:53;;;;;;;3.40;2.30;;;;;;;29.08;49.95;96475.51;107565;1292;22398;-90
2023/07/15 13:26:32;;;;;;;4.80;3.40;;;;;;;29.09;49.37;96470.19;107857;1288;22309;-91
2023/07/15 13:29:04;;;;;;;3.90;2.00;;;;;;;29.12;49.43;96464.62;107562;1283;138161;-89
2023/07/15 13:31:30;;;;;;;3.70;2.60;;;;;;;29.15;50.14;96464.95;107537;1292;22204;-89
2023/07/15 13:34:11;;;;;;;3.50;2.80;;;;;;;29.20;49.30;96469.23;107742;1300;137744;-90
2023/07/15 13:36:47;;;;;;;2.50;2.10;;;;;;;29.22;48.97;96470.84;108040;1286;21757;-90
2023/07/15 13:40:00;;;;;;;3.00;2.40;;;;;;;29.25;49.47;96470.33;107739;1289;138329;-91
2023/07/15 13:42:29;;;;;;;3.00;2.50;;;;;;;29.31;49.44;96464.19;107339;1289;22199;-90
2023/07/15 13:44:56;;;;;;;3.30;2.70;;;;;;;29.32;49.62;96465.98;107798;1287;23078;-90
2023/07/15 13:47:24;;;;;;;2.40;2.20;;;;;;;29.35;49.08;96467.59;107577;1290;138512;-90
2023/07/15 13:49:50;;;;;;;3.80;2.60;;;;;;;29.36;49.09;96467.98;107849;1298;22204;-89
2023/07/15 13:52:17;;;;;;;4.30;2.70;;;;;;;29.41;49.98;96465.02;107569;1300;137645;-89
2023/07/15 13:54:53;;;;;;;2.40;2.20;;;;;;;29.46;50.15;96462.48;107709;1289;23245;-90
2023/07/15 13:57:20;;;;;;;2.50;2.00;;;;;;;29.50;50.58;96463.92;107754;1288;137715;-90
2023/07/15 13:59:55;;;;;;;3.80;2.80;;;;;;;29.49;50.51;96463.56;107623;1298;22339;-90
2023/07/15 14:02:24;;;;;;;3.40;2.60;;;;;;;29.47;49.25;96465.76;107808;1289;22194;-90
2023/07/15 14:04:52;;;;;;;3.40;2.50;;;;;;;29.47;49.02;96466.23;107710;1305;138515;-90
2023/07/15 14:07:24;;;;;;;2.60;2.30;;;;;;;29.49;49.20;96466.73;107644;1285;22970;-90
2023/07/15 14:09:58;;;;;;;2.40;2.20;;;;;;;29.50;48.48;96469.06;107817;1288;137613;-90
2023/07/15 14:12:49;;;;;;;2.70;2.50;;;;;;;29.52;49.42;96463.27;107725;1289;22860;-90
2023/07/15 14:15:17;;;;;;;2.90;2.20;;;;;;;29.55;51.62;96464.88;107600;1290;138045;-90
2023/07/15 14:17:47;;;;;;;3.00;2.20;;;;;;;29.54;49.98;96464.67;107666;1289;22216;-90
2023/07/15 14:20:37;;;;;;;2.20;2.00;;;;;;;29.51;49.09;96457.26;107473;1292;21902;-90
2023/07/15 14:23:04;;;;;;;3.30;2.40;;;;;;;29.45;48.93;96454.41;104869;1294;3375740;-90
2023/07/15 14:25:31;;;;;;;2.90;2.70;;;;;;;29.44;49.11;96453.77;107690;1287;22307;-91
2023/07/15 14:27:58;;;;;;;2.60;2.40;;;;;;;29.45;48.73;96455.39;107615;1298;137740;-90
2023/07/15 14:30:30;;;;;;;3.00;2.60;;;;;;;29.49;48.58;96452.70;107900;1288;22224;-88
2023/07/15 14:33:20;;;;;;;3.30;2.60;;;;;;;29.52;48.52;96446.80;107730;1290;23778;-88
2023/07/15 14:36:02;;;;;;;3.10;2.40;;;;;;;29.56;49.50;96445.20;107730;1290;22435;-88
2023/07/15 14:38:29;;;;;;;2.70;2.30;;;;;;;29.56;48.77;96444.91;107885;1287;22205;-89
2023/07/15 14:41:05;;;;;;;3.10;2.30;;;;;;;29.57;48.27;96445.20;107627;1300;138144;-88
2023/07/15 14:47:23;;;;;;;3.70;2.30;;;;;;;29.60;51.43;96438.21;108123;1304;137648;-90
2023/07/15 14:59:43;;;;;;;3.30;2.30;;;;;;;29.70;48.96;96438.11;108080;1297;137916;-90
2023/07/15 17:17:03;;;;;;;3.60;2.10;;;;;;;28.72;53.66;96401.98;107209;1275;22143;31
2023/07/15 17:23:11;;;;;;;;;;;;;;;;;;;;;
2023/07/15 17:32:15;;;;;;;;;;;;;;;;;;;;;
2023/07/15 17:35:54;;;;;;;;;;;;;;;;;;;;;
2023/07/15 17:47:44;;;;;;;;;;;;;;;;;;;;;
2023/07/15 17:53:21;;;;;;;;;;;;;;;;;;;;;
2023/07/15 17:56:58;;;;;;;3.10;2.70;;;;;;;27.42;57.93;96407.89;106839;1303;546064;-88
2023/07/15 18:02:33;;;;;;;;;;;;;;;;;;;;;
2023/07/15 18:08:02;;;;;;;;;;;;;;;;;;;;;
2023/07/15 18:23:22;;;;;;;;;;;;;;;;;;;;;
2023/07/15 18:35:30;;;;;;;;;;;;;;;;;;;;;
2023/07/15 18:48:04;;;;;;;;;;;;;;;;;;;;;
2023/07/15 19:28:13;;;;;;;;;;;;;;;;;;;;;
2023/07/15 19:34:31;;;;;;;;;;;;;;;;;;;;;
2023/07/15 19:42:51;;;;;;;;;;;;;;;;;;;;;
2023/07/15 20:00:40;;;;;;;;;;;;;;;;;;;;;
2023/07/15 20:28:13;;;;;;;;;;;;;;;;;;;;;
2023/07/15 20:34:23;;;;;;;;;;;;;;;;;;;;;
2023/07/15 20:46:22;;;;;;;;;;;;;;;;;;;;;
2023/07/15 21:34:29;;;;;;;;;;;;;;;;;;;;;
2023/07/15 22:14:34;;;;;;;;;;;;;;;;;;;;;
2023/07/15 22:28:24;;;;;;;;;;;;;;;;;;;;;
2023/07/15 22:37:11;;;;;;;;;;;;;;;;;;;;;
2023/07/15 23:10:29;;;;;;;;;;;;;;;;;;;;;
2023/07/15 23:52:18;;;;;;;3.10;2.50;;;;;;;24.83;57.44;96352.36;110019;1261;136225;-88
